createdAt,value
2022-08-12T00:01:12.316Z,20.82
2022-08-12T00:03:58.175Z,20.81
2022-08-12T00:06:44.503Z,20.76
2022-08-12T00:09:29.905Z,20.74
2022-08-12T00:12:15.038Z,20.63
2022-08-12T00:15:03.247Z,20.62
2022-08-12T00:17:49.039Z,20.53
2022-08-12T00:20:35.053Z,20.49
2022-08-12T00:23:20.943Z,20.44
2022-08-12T00:26:23.448Z,20.43
2022-08-12T00:29:13.359Z,20.33
2022-08-12T00:32:01.531Z,20.29
2022-08-12T00:34:49.680Z,20.23
2022-08-12T00:37:40.205Z,20.19
2022-08-12T00:40:29.793Z,20.13
2022-08-12T00:42:58.533Z,20.12
2022-08-12T00:45:26.002Z,20.09
2022-08-12T00:47:54.246Z,20.04
2022-08-12T00:50:23.241Z,20.03
2022-08-12T00:52:52.955Z,19.96
2022-08-12T00:55:21.566Z,19.92
2022-08-12T00:57:50.839Z,19.91
2022-08-12T01:00:24.353Z,19.83
2022-08-12T01:02:57.684Z,19.74
2022-08-12T01:05:45.325Z,19.73
2022-08-12T01:08:30.937Z,19.69
2022-08-12T01:11:16.454Z,19.50
2022-08-12T01:13:50.430Z,19.53
2022-08-12T01:16:22.887Z,19.45
2022-08-12T01:18:54.401Z,19.44
2022-08-12T01:21:27.457Z,19.40
2022-08-12T01:24:31.058Z,19.33
2022-08-12T01:27:01.519Z,19.28
2022-08-12T01:29:34.722Z,19.25
2022-08-12T01:32:08.883Z,19.16
2022-08-12T01:34:40.355Z,19.15
2022-08-12T01:37:09.898Z,19.11
2022-08-12T01:40:34.148Z,18.98
2022-08-12T01:42:47.709Z,18.97
2022-08-12T01:45:18.318Z,18.88
2022-08-12T01:48:16.773Z,18.83
2022-08-12T01:51:40.746Z,18.82
2022-08-12T01:54:14.185Z,18.77
2022-08-12T01:56:56.502Z,18.76
2022-08-12T01:59:56.572Z,18.68
2022-08-12T02:02:41.148Z,18.66
2022-08-12T02:06:08.457Z,18.54
2022-08-12T02:09:20.644Z,18.54
2022-08-12T02:11:53.817Z,18.54
2022-08-12T02:14:48.460Z,18.45
2022-08-12T02:17:57.103Z,18.39
2022-08-12T02:20:53.380Z,18.39
2022-08-12T02:23:28.338Z,18.37
2022-08-12T02:25:59.691Z,18.35
2022-08-12T02:28:27.332Z,18.31
2022-08-12T02:30:55.619Z,18.28
2022-08-12T02:33:23.333Z,18.22
2022-08-12T02:35:51.718Z,18.21
2022-08-12T02:38:21.928Z,18.12
2022-08-12T02:40:53.196Z,18.11
2022-08-12T02:43:34.853Z,18.07
2022-08-12T02:46:15.048Z,18.04
2022-08-12T02:49:33.366Z,18.02
2022-08-12T02:52:01.176Z,17.94
2022-08-12T02:54:28.275Z,17.93
2022-08-12T02:56:55.265Z,17.88
2022-08-12T02:59:25.129Z,17.87
2022-08-12T03:02:14.998Z,17.83
2022-08-12T03:04:50.309Z,17.79
2022-08-12T03:07:56.487Z,17.76
2022-08-12T03:10:37.104Z,17.69
2022-08-12T03:13:07.852Z,17.68
2022-08-12T03:15:39.017Z,17.66
2022-08-12T03:18:28.337Z,17.57
2022-08-12T03:20:59.071Z,17.58
2022-08-12T03:23:31.085Z,17.54
2022-08-12T03:26:01.988Z,17.50
2022-08-12T03:28:51.231Z,17.44
2022-08-12T03:31:32.427Z,17.43
2022-08-12T03:34:09.180Z,17.37
2022-08-12T03:36:39.275Z,17.34
2022-08-12T03:39:35.423Z,17.33
2022-08-12T03:42:41.691Z,17.29
2022-08-12T03:45:51.923Z,17.20
2022-08-12T03:48:39.466Z,17.20
2022-08-12T03:51:25.237Z,17.13
2022-08-12T03:54:11.763Z,17.09
2022-08-12T03:56:58.452Z,17.05
2022-08-12T03:59:44.340Z,17.05
2022-08-12T04:02:17.857Z,16.90
2022-08-12T04:04:49.276Z,16.93
2022-08-12T04:07:16.898Z,16.89
2022-08-12T04:09:46.876Z,16.88
2022-08-12T04:12:33.590Z,16.84
2022-08-12T04:15:01.800Z,16.78
2022-08-12T04:17:29.153Z,16.77
2022-08-12T04:19:58.311Z,16.75
2022-08-12T04:22:30.021Z,16.75
2022-08-12T04:25:02.080Z,16.72
2022-08-12T04:27:32.276Z,16.71
2022-08-12T04:30:31.512Z,16.67
2022-08-12T04:32:51.033Z,16.63
2022-08-12T04:35:19.026Z,16.59
2022-08-12T04:37:58.648Z,16.61
2022-08-12T04:40:31.385Z,16.54
2022-08-12T04:43:01.510Z,16.48
2022-08-12T04:45:29.361Z,16.47
2022-08-12T04:47:56.806Z,16.48
2022-08-12T04:50:27.189Z,16.42
2022-08-12T04:53:08.120Z,16.38
2022-08-12T04:55:39.189Z,16.36
2022-08-12T04:58:10.441Z,16.37
2022-08-12T05:00:38.465Z,16.33
2022-08-12T05:03:07.208Z,16.32
2022-08-12T05:05:36.539Z,16.33
2022-08-12T05:08:04.927Z,16.32
2022-08-12T05:10:33.721Z,16.31
2022-08-12T05:13:11.220Z,16.32
2022-08-12T05:16:02.564Z,16.20
2022-08-12T05:18:29.693Z,16.28
2022-08-12T05:20:59.377Z,16.32
2022-08-12T05:23:27.350Z,16.29
2022-08-12T05:25:57.889Z,16.33
2022-08-12T05:28:27.594Z,16.39
2022-08-12T05:30:55.838Z,16.56
2022-08-12T05:33:26.789Z,16.76
2022-08-12T05:35:53.790Z,16.99
2022-08-12T05:38:39.477Z,17.38
2022-08-12T05:41:19.179Z,17.84
2022-08-12T05:43:58.223Z,18.59
2022-08-12T05:46:27.849Z,19.14
2022-08-12T05:48:56.523Z,19.67
2022-08-12T05:51:40.690Z,20.19
2022-08-12T05:54:09.636Z,20.67
2022-08-12T05:56:37.182Z,21.08
2022-08-12T05:59:09.457Z,21.21
2022-08-12T06:02:08.743Z,21.51
2022-08-12T06:04:23.969Z,21.95
2022-08-12T06:06:53.677Z,22.17
2022-08-12T06:09:22.853Z,22.39
2022-08-12T06:12:04.541Z,22.62
2022-08-12T06:14:36.902Z,22.50
2022-08-12T06:17:05.721Z,22.37
2022-08-12T06:20:22.899Z,22.28
2022-08-12T06:22:19.724Z,22.31
2022-08-12T06:24:48.629Z,22.32
2022-08-12T06:27:19.122Z,22.53
2022-08-12T06:30:08.634Z,22.84
2022-08-12T06:32:34.643Z,23.15
2022-08-12T06:35:26.610Z,23.45
2022-08-12T06:37:56.818Z,23.79
2022-08-12T06:41:04.167Z,24.08
2022-08-12T06:44:06.248Z,24.35
2022-08-12T06:46:22.391Z,24.56
2022-08-12T06:48:56.939Z,24.74
2022-08-12T06:51:25.494Z,24.88
2022-08-12T06:53:52.531Z,25.06
2022-08-12T06:56:19.600Z,25.12
2022-08-12T06:58:46.696Z,25.22
2022-08-12T07:01:13.660Z,25.29
2022-08-12T07:03:40.937Z,25.35
2022-08-12T07:06:13.730Z,25.37
2022-08-12T07:08:42.428Z,25.33
2022-08-12T07:11:12.188Z,25.37
2022-08-12T07:14:12.631Z,25.39
2022-08-12T07:16:51.782Z,25.43
2022-08-12T07:19:19.823Z,25.38
2022-08-12T07:21:59.815Z,25.49
2022-08-12T07:24:30.682Z,25.51
2022-08-12T07:26:57.565Z,25.51
2022-08-12T07:29:57.856Z,25.54
2022-08-12T07:32:13.511Z,25.54
2022-08-12T07:34:43.513Z,25.62
2022-08-12T07:37:10.916Z,25.69
2022-08-12T07:39:51.381Z,25.66
2022-08-12T07:42:24.547Z,25.71
2022-08-12T07:44:53.753Z,25.81
2022-08-12T07:47:20.644Z,25.83
2022-08-12T07:50:04.220Z,25.94
2022-08-12T07:52:42.862Z,26.03
2022-08-12T07:55:11.394Z,26.11
2022-08-12T07:57:59.475Z,26.20
2022-08-12T08:00:34.482Z,26.37
2022-08-12T08:03:01.733Z,26.52
2022-08-12T08:05:46.465Z,26.63
2022-08-12T08:08:22.678Z,26.73
2022-08-12T08:10:53.589Z,26.81
2022-08-12T08:13:20.707Z,26.86
2022-08-12T08:16:03.963Z,26.91
2022-08-12T08:18:31.478Z,27.06
2022-08-12T08:20:58.304Z,27.20
2022-08-12T08:23:46.447Z,27.19
2022-08-12T08:26:15.749Z,27.22
2022-08-12T08:28:43.844Z,27.33
2022-08-12T08:31:14.421Z,27.30
2022-08-12T08:34:05.437Z,27.39
2022-08-12T08:36:29.483Z,27.44
2022-08-12T08:38:58.229Z,27.47
2022-08-12T08:42:17.736Z,27.66
2022-08-12T08:44:39.643Z,27.74
2022-08-12T08:47:09.397Z,27.87
2022-08-12T08:49:37.355Z,27.94
2022-08-12T08:52:06.648Z,28.08
2022-08-12T08:54:34.104Z,27.95
2022-08-12T08:57:02.703Z,28.09
2022-08-12T08:59:29.673Z,28.16
2022-08-12T09:01:57.125Z,28.28
2022-08-12T09:05:11.708Z,28.29
2022-08-12T09:07:16.708Z,28.34
2022-08-12T09:10:02.272Z,28.41
2022-08-12T09:12:55.145Z,28.52
2022-08-12T09:15:35.490Z,28.60
2022-08-12T09:18:08.818Z,28.72
2022-08-12T09:20:40.301Z,28.73
2022-08-12T09:24:00.370Z,28.71
2022-08-12T09:26:04.071Z,28.70
2022-08-12T09:28:34.525Z,28.70
2022-08-12T09:32:07.060Z,28.66
2022-08-12T09:34:25.569Z,28.71
2022-08-12T09:36:57.584Z,28.72
2022-08-12T09:40:06.364Z,28.73
2022-08-12T09:42:43.409Z,28.76
2022-08-12T09:45:24.635Z,28.75
2022-08-12T09:48:22.328Z,28.72
2022-08-12T09:50:51.643Z,28.75
2022-08-12T09:53:36.378Z,28.69
2022-08-12T09:57:00.870Z,28.70
2022-08-12T09:59:01.906Z,28.73
2022-08-12T10:01:34.714Z,28.74
2022-08-12T10:04:19.910Z,28.78
2022-08-12T10:06:55.456Z,28.79
2022-08-12T10:09:28.493Z,28.86
2022-08-12T10:12:33.445Z,28.87
2022-08-12T10:15:03.994Z,28.91
2022-08-12T10:17:33.310Z,28.93
2022-08-12T10:22:39.179Z,29.10
2022-08-12T10:26:34.135Z,29.16
2022-08-12T10:28:33.477Z,29.25
2022-08-12T10:31:01.316Z,29.27
2022-08-12T10:33:32.109Z,29.31
2022-08-12T10:36:02.089Z,29.37
2022-08-12T10:38:36.135Z,29.41
2022-08-12T10:41:57.775Z,29.47
2022-08-12T10:44:16.874Z,29.55
2022-08-12T10:46:49.300Z,29.60
2022-08-12T10:50:03.009Z,29.64
2022-08-12T10:52:33.042Z,29.64
2022-08-12T10:54:56.235Z,29.69
2022-08-12T10:57:50.354Z,29.69
2022-08-12T11:00:34.945Z,29.73
2022-08-12T11:04:26.951Z,29.80
2022-08-12T11:07:07.812Z,29.85
2022-08-12T11:08:43.035Z,29.92
2022-08-12T11:12:07.565Z,29.94
2022-08-12T11:14:05.986Z,30.00
2022-08-12T11:16:40.158Z,30.01
2022-08-12T11:19:29.202Z,30.04
2022-08-12T11:22:02.938Z,30.11
2022-08-12T11:24:32.273Z,30.19
2022-08-12T11:27:07.897Z,30.27
2022-08-12T11:30:06.156Z,30.41
2022-08-12T11:32:25.029Z,30.46
2022-08-12T11:34:54.788Z,30.48
2022-08-12T11:37:25.436Z,30.53
2022-08-12T11:42:43.769Z,30.62
2022-08-12T11:45:16.916Z,30.63
2022-08-12T11:47:44.842Z,30.68
2022-08-12T11:50:18.922Z,30.65
2022-08-12T11:52:55.756Z,30.68
2022-08-12T11:55:25.587Z,30.71
2022-08-12T11:58:40.445Z,30.75
2022-08-12T12:03:43.643Z,30.98
2022-08-12T12:06:15.423Z,31.08
2022-08-12T12:08:50.389Z,31.16
2022-08-12T12:11:19.082Z,31.23
2022-08-12T12:14:06.696Z,31.29
2022-08-12T12:16:37.984Z,31.34
2022-08-12T12:19:10.440Z,31.41
2022-08-12T12:21:48.291Z,31.47
2022-08-12T12:24:21.613Z,31.52
2022-08-12T12:26:59.819Z,31.54
2022-08-12T12:30:17.962Z,31.60
2022-08-12T12:32:16.613Z,31.65
2022-08-12T12:35:13.741Z,31.63
2022-08-12T12:38:03.848Z,31.65
2022-08-12T12:40:17.719Z,31.72
2022-08-12T12:42:57.812Z,31.78
2022-08-12T12:45:33.325Z,31.86
2022-08-12T12:48:14.152Z,31.88
2022-08-12T12:51:13.186Z,31.84
2022-08-12T12:54:08.095Z,31.88
2022-08-12T12:56:34.604Z,31.94
2022-08-12T12:59:06.364Z,31.96
2022-08-12T13:01:38.412Z,31.92
2022-08-12T13:04:12.184Z,31.92
2022-08-12T13:06:42.120Z,31.95
2022-08-12T13:09:13.229Z,31.97
2022-08-12T13:11:42.065Z,32.04
2022-08-12T13:14:28.607Z,32.03
2022-08-12T13:17:02.638Z,32.05
2022-08-12T13:19:44.472Z,32.03
2022-08-12T13:22:23.410Z,32.12
2022-08-12T13:24:56.013Z,32.16
2022-08-12T13:27:41.574Z,32.17
2022-08-12T13:30:20.624Z,32.16
2022-08-12T13:32:57.562Z,32.18
2022-08-12T13:36:04.960Z,32.25
2022-08-12T13:38:41.097Z,32.35
2022-08-12T13:41:33.136Z,32.45
2022-08-12T13:44:02.122Z,32.52
2022-08-12T13:46:28.959Z,32.51
2022-08-12T13:48:56.673Z,32.49
2022-08-12T13:51:25.144Z,32.42
2022-08-12T13:54:13.957Z,32.42
2022-08-12T13:56:41.339Z,32.44
2022-08-12T13:59:18.539Z,32.45
2022-08-12T14:01:52.013Z,32.49
2022-08-12T14:04:19.402Z,32.44
2022-08-12T14:06:50.930Z,32.54
2022-08-12T14:09:19.959Z,32.54
2022-08-12T14:11:58.329Z,32.55
2022-08-12T14:14:27.352Z,32.51
2022-08-12T14:16:54.162Z,32.54
2022-08-12T14:19:24.466Z,32.52
2022-08-12T14:21:59.615Z,32.58
2022-08-12T14:24:40.593Z,32.64
2022-08-12T14:27:10.916Z,32.71
2022-08-12T14:30:05.107Z,32.69
2022-08-12T14:32:35.248Z,32.71
2022-08-12T14:35:09.221Z,32.70
2022-08-12T14:37:57.957Z,32.73
2022-08-12T14:40:30.122Z,32.63
2022-08-12T14:42:59.297Z,32.77
2022-08-12T14:45:44.390Z,32.74
2022-08-12T14:48:16.308Z,32.77
2022-08-12T14:51:03.329Z,32.73
2022-08-12T14:59:57.420Z,32.70
2022-08-12T15:02:21.191Z,32.75
2022-08-12T15:04:59.694Z,32.81
2022-08-12T15:07:33.609Z,32.82
2022-08-12T15:10:24.971Z,32.84
2022-08-12T15:12:52.684Z,32.83
2022-08-12T15:15:21.660Z,32.86
2022-08-12T15:17:59.100Z,32.86
2022-08-12T15:20:33.096Z,32.87
2022-08-12T15:23:17.966Z,32.84
2022-08-12T15:25:48.229Z,32.79
2022-08-12T15:28:22.239Z,32.82
2022-08-12T15:30:52.392Z,32.88
2022-08-12T15:33:24.237Z,32.88
2022-08-12T15:35:54.046Z,32.89
2022-08-12T15:38:31.512Z,32.91
2022-08-12T15:41:00.211Z,32.90
2022-08-12T15:43:51.644Z,32.87
2022-08-12T15:46:17.458Z,32.88
2022-08-12T15:48:46.715Z,32.90
2022-08-12T15:51:59.536Z,32.96
2022-08-12T15:54:33.990Z,32.95
2022-08-12T15:57:08.067Z,32.96
2022-08-12T16:00:00.793Z,32.93
2022-08-12T16:02:29.747Z,32.94
2022-08-12T16:04:57.449Z,32.94
2022-08-12T16:07:29.655Z,32.96
2022-08-12T16:10:07.066Z,32.89
2022-08-12T16:12:54.436Z,32.83
2022-08-12T16:15:26.469Z,32.82
2022-08-12T16:18:15.175Z,32.81
2022-08-12T16:20:47.213Z,32.86
2022-08-12T16:23:26.717Z,32.80
2022-08-12T16:26:05.603Z,32.76
2022-08-12T16:28:34.023Z,32.70
2022-08-12T16:31:02.114Z,32.66
2022-08-12T16:33:58.767Z,32.62
2022-08-12T16:36:29.539Z,32.60
2022-08-12T16:38:57.024Z,32.60
2022-08-12T16:41:24.273Z,32.62
2022-08-12T16:43:55.033Z,32.60
2022-08-12T16:46:32.775Z,32.53
2022-08-12T16:49:09.050Z,32.44
2022-08-12T16:51:46.579Z,32.45
2022-08-12T16:54:17.230Z,32.47
2022-08-12T16:56:50.953Z,32.48
2022-08-12T16:59:22.923Z,32.45
2022-08-12T17:01:51.981Z,32.40
2022-08-12T17:04:24.297Z,32.38
2022-08-12T17:06:52.793Z,32.33
2022-08-12T17:09:19.859Z,32.34
2022-08-12T17:11:50.391Z,32.29
2022-08-12T17:14:23.167Z,32.27
2022-08-12T17:16:55.525Z,32.25
2022-08-12T17:20:28.716Z,32.20
2022-08-12T17:22:15.551Z,32.17
2022-08-12T17:24:54.565Z,32.11
2022-08-12T17:27:35.151Z,32.09
2022-08-12T17:30:05.613Z,32.06
2022-08-12T17:32:37.240Z,32.00
2022-08-12T17:35:29.951Z,32.02
2022-08-12T17:38:11.601Z,31.98
2022-08-12T17:40:39.454Z,31.93
2022-08-12T17:43:51.843Z,31.83
2022-08-12T17:45:58.877Z,31.81
2022-08-12T17:48:34.913Z,31.71
2022-08-12T17:51:15.380Z,31.65
2022-08-12T17:54:11.086Z,31.56
2022-08-12T17:56:37.661Z,31.44
2022-08-12T17:59:07.534Z,31.37
2022-08-12T18:01:36.107Z,31.24
2022-08-12T18:04:22.455Z,31.22
2022-08-12T18:06:55.861Z,31.13
2022-08-12T18:09:24.450Z,31.04
2022-08-12T18:12:11.654Z,31.01
2022-08-12T18:14:41.305Z,30.92
2022-08-12T18:17:16.651Z,30.83
2022-08-12T18:20:05.656Z,30.76
2022-08-12T18:22:32.723Z,30.67
2022-08-12T18:25:05.160Z,30.61
2022-08-12T18:27:44.647Z,30.52
2022-08-12T18:30:20.982Z,30.43
2022-08-12T18:33:04.995Z,30.30
2022-08-12T18:35:47.134Z,30.26
2022-08-12T18:38:21.772Z,30.17
2022-08-12T18:41:10.419Z,30.12
2022-08-12T18:43:59.338Z,30.05
2022-08-12T18:46:47.518Z,29.92
2022-08-12T18:49:38.742Z,29.82
2022-08-12T18:52:11.692Z,29.69
2022-08-12T18:54:55.735Z,29.60
2022-08-12T18:58:07.365Z,29.51
2022-08-12T19:00:22.330Z,29.41
2022-08-12T19:02:53.021Z,29.29
2022-08-12T19:05:20.112Z,29.21
2022-08-12T19:08:00.921Z,29.08
2022-08-12T19:10:31.805Z,29.02
2022-08-12T19:13:23.809Z,28.89
2022-08-12T19:15:57.409Z,28.75
2022-08-12T19:18:29.298Z,28.67
2022-08-12T19:20:58.686Z,28.56
2022-08-12T19:23:35.162Z,28.45
2022-08-12T19:26:04.776Z,28.38
2022-08-12T19:28:35.353Z,28.31
2022-08-12T19:31:55.651Z,28.15
2022-08-12T19:38:02.806Z,27.91
2022-08-12T19:40:31.081Z,27.80
2022-08-12T19:43:18.322Z,27.64
2022-08-12T19:45:51.573Z,27.59
2022-08-12T19:48:27.594Z,27.47
2022-08-12T19:50:57.539Z,27.44
2022-08-12T19:53:27.625Z,27.37
2022-08-12T19:55:57.399Z,27.26
2022-08-12T19:58:25.858Z,27.19
2022-08-12T20:00:55.459Z,27.12
2022-08-12T20:03:39.954Z,27.02
2022-08-12T20:06:15.293Z,26.95
2022-08-12T20:08:48.603Z,26.89
2022-08-12T20:12:09.440Z,26.83
2022-08-12T20:14:07.243Z,26.73
2022-08-12T20:16:57.791Z,26.66
2022-08-12T20:19:52.717Z,26.59
2022-08-12T20:22:24.270Z,26.49
2022-08-12T20:25:02.145Z,26.45
2022-08-12T20:28:04.424Z,26.34
2022-08-12T20:30:37.298Z,26.31
2022-08-12T20:33:17.378Z,26.24
2022-08-12T20:36:13.330Z,26.17
2022-08-12T20:38:38.419Z,26.06
2022-08-12T20:41:16.578Z,26.00
2022-08-12T20:43:51.902Z,25.88
2022-08-12T20:46:20.083Z,25.88
2022-08-12T20:48:54.973Z,25.79
2022-08-12T20:51:27.517Z,25.77
2022-08-12T20:53:58.758Z,25.73
2022-08-12T20:56:38.193Z,25.66
2022-08-12T20:59:10.994Z,25.58
2022-08-12T21:01:47.559Z,25.44
2022-08-12T21:04:35.733Z,25.45
2022-08-12T21:07:09.145Z,25.37
2022-08-12T21:09:44.716Z,25.32
2022-08-12T21:12:27.833Z,25.27
2022-08-12T21:15:18.121Z,25.23
2022-08-12T21:18:09.339Z,25.17
2022-08-12T21:20:52.877Z,25.08
2022-08-12T21:23:22.524Z,25.04
2022-08-12T21:25:51.206Z,25.01
2022-08-12T21:28:20.945Z,24.95
2022-08-12T21:31:10.962Z,24.90
2022-08-12T21:33:58.294Z,24.83
2022-08-12T21:36:34.221Z,24.76
2022-08-12T21:39:18.582Z,24.71
2022-08-12T21:41:51.536Z,24.69
2022-08-12T21:45:46.457Z,24.62
2022-08-12T21:47:20.776Z,24.58
2022-08-12T21:50:06.611Z,24.55
2022-08-12T21:52:40.835Z,24.43
2022-08-12T21:55:19.617Z,24.43
2022-08-12T21:57:54.841Z,24.40
2022-08-12T22:00:36.981Z,24.30
2022-08-12T22:04:07.982Z,24.29
2022-08-12T22:06:31.500Z,24.19
2022-08-12T22:09:15.380Z,24.18
2022-08-12T22:11:59.234Z,24.13
2022-08-12T22:14:29.629Z,24.06
2022-08-12T22:16:58.393Z,24.04
2022-08-12T22:19:26.934Z,23.96
2022-08-12T22:21:56.174Z,23.89
2022-08-12T22:24:25.679Z,23.84
2022-08-12T22:26:54.496Z,23.80
2022-08-12T22:29:40.852Z,23.75
2022-08-12T22:32:11.930Z,23.69
2022-08-12T22:34:39.449Z,23.64
2022-08-12T22:37:11.335Z,23.60
2022-08-12T22:39:46.481Z,23.53
2022-08-12T22:42:34.365Z,23.48
2022-08-12T22:45:24.388Z,23.45
2022-08-12T22:47:56.115Z,23.40
2022-08-12T22:50:29.702Z,23.35
2022-08-12T22:53:17.598Z,23.33
2022-08-12T22:56:05.538Z,23.26
2022-08-12T22:58:40.786Z,23.22
2022-08-12T23:01:11.161Z,23.17
2022-08-12T23:03:49.620Z,23.12
2022-08-12T23:06:24.065Z,23.08
2022-08-12T23:08:54.692Z,23.04
2022-08-12T23:11:23.878Z,22.98
2022-08-12T23:14:00.866Z,22.95
2022-08-12T23:16:33.407Z,22.89
2022-08-12T23:19:10.626Z,22.82
2022-08-12T23:22:05.098Z,22.74
2022-08-12T23:24:55.829Z,22.71
2022-08-12T23:27:52.315Z,22.66
2022-08-12T23:30:31.255Z,22.59
2022-08-12T23:33:13.183Z,22.56
2022-08-12T23:35:59.232Z,22.51
2022-08-12T23:38:33.009Z,22.47
2022-08-12T23:41:02.442Z,22.44
2022-08-12T23:43:39.181Z,22.37
2022-08-12T23:46:12.533Z,22.30
2022-08-12T23:48:47.860Z,22.26
2022-08-12T23:51:25.675Z,22.21
2022-08-12T23:53:56.451Z,22.16
2022-08-12T23:56:27.561Z,22.13
2022-08-12T23:58:58.703Z,22.08
